createdAt,value
2023-02-14T00:00:57.332Z,28.44
2023-02-14T00:03:27.604Z,28.46
2023-02-14T00:05:57.610Z,28.51
2023-02-14T00:08:27.683Z,28.56
2023-02-14T00:10:58.376Z,28.59
2023-02-14T00:13:28.506Z,28.61
2023-02-14T00:15:58.619Z,28.62
2023-02-14T00:18:47.108Z,28.65
2023-02-14T00:21:17.234Z,28.68
2023-02-14T00:23:47.238Z,28.68
2023-02-14T00:26:17.693Z,28.72
2023-02-14T00:28:48.281Z,28.73
2023-02-14T00:31:19.079Z,28.75
2023-02-14T00:33:49.284Z,28.77
2023-02-14T00:36:21.540Z,28.77
2023-02-14T00:38:53.064Z,28.79
2023-02-14T00:41:23.326Z,28.80
2023-02-14T00:43:54.631Z,28.82
2023-02-14T00:46:27.359Z,28.85
2023-02-14T00:48:58.506Z,28.88
2023-02-14T00:51:29.362Z,28.90
2023-02-14T00:53:59.508Z,28.92
2023-02-14T00:56:29.485Z,28.92
2023-02-14T00:58:59.576Z,28.94
2023-02-14T01:01:29.734Z,28.98
2023-02-14T01:04:00.379Z,28.91
2023-02-14T01:06:30.464Z,28.91
2023-02-14T01:09:00.937Z,28.93
2023-02-14T01:11:31.184Z,28.95
2023-02-14T01:14:01.328Z,28.96
2023-02-14T01:16:31.426Z,28.99
2023-02-14T01:19:02.553Z,29.02
2023-02-14T01:21:34.396Z,29.03
2023-02-14T01:24:06.262Z,29.05
2023-02-14T01:26:37.792Z,29.06
2023-02-14T01:29:07.879Z,29.09
2023-02-14T01:31:38.032Z,29.08
2023-02-14T01:34:08.361Z,29.10
2023-02-14T01:36:39.740Z,29.12
2023-02-14T01:39:12.738Z,29.14
2023-02-14T01:41:43.923Z,29.16
2023-02-14T01:44:16.698Z,29.17
2023-02-14T01:46:47.819Z,29.20
2023-02-14T01:49:17.916Z,29.22
2023-02-14T01:51:51.168Z,29.23
2023-02-14T01:54:25.051Z,29.25
2023-02-14T01:57:02.761Z,29.27
2023-02-14T01:59:36.441Z,29.29
2023-02-14T02:02:07.358Z,29.30
2023-02-14T02:04:39.879Z,29.33
2023-02-14T02:07:16.756Z,29.35
2023-02-14T02:09:52.485Z,29.36
2023-02-14T02:12:22.596Z,29.39
2023-02-14T02:14:54.245Z,29.41
2023-02-14T02:17:31.980Z,29.43
2023-02-14T02:20:20.450Z,29.46
2023-02-14T02:23:02.242Z,29.48
2023-02-14T02:25:47.625Z,29.50
2023-02-14T02:28:36.097Z,29.53
2023-02-14T02:31:24.680Z,29.55
2023-02-14T02:34:13.922Z,29.57
2023-02-14T02:37:07.232Z,29.59
2023-02-14T02:40:09.866Z,29.62
2023-02-14T02:42:43.293Z,29.64
2023-02-14T02:45:34.398Z,29.67
2023-02-14T02:48:11.500Z,29.69
2023-02-14T02:51:05.491Z,29.71
2023-02-14T02:53:38.543Z,29.72
2023-02-14T02:56:31.355Z,29.74
2023-02-14T02:59:01.475Z,29.76
2023-02-14T03:01:36.242Z,29.77
2023-02-14T03:04:28.131Z,29.79
2023-02-14T03:06:58.614Z,29.83
2023-02-14T03:09:30.946Z,29.86
2023-02-14T03:12:22.778Z,29.89
2023-02-14T03:14:58.230Z,29.91
2023-02-14T03:17:34.622Z,29.94
2023-02-14T03:20:17.502Z,29.96
2023-02-14T03:22:59.401Z,29.99
2023-02-14T03:25:39.030Z,30.00
2023-02-14T03:28:09.236Z,30.04
2023-02-14T03:30:56.101Z,30.07
2023-02-14T03:33:28.405Z,30.09
2023-02-14T03:36:50.925Z,30.12
2023-02-14T03:39:21.113Z,30.16
2023-02-14T03:41:54.464Z,30.19
2023-02-14T03:44:29.863Z,30.20
2023-02-14T03:47:06.372Z,30.22
2023-02-14T03:49:39.668Z,30.26
2023-02-14T03:52:11.409Z,30.28
2023-02-14T03:54:41.935Z,30.32
2023-02-14T03:57:22.790Z,30.34
2023-02-14T03:59:52.932Z,30.37
2023-02-14T04:02:45.824Z,30.39
2023-02-14T04:05:18.599Z,30.42
2023-02-14T04:07:50.905Z,30.45
2023-02-14T04:10:21.984Z,30.46
2023-02-14T04:12:52.220Z,30.49
2023-02-14T04:15:22.514Z,30.51
2023-02-14T04:18:10.807Z,30.54
2023-02-14T04:20:41.401Z,30.57
2023-02-14T04:23:11.639Z,30.58
2023-02-14T04:25:44.371Z,30.61
2023-02-14T04:28:14.959Z,30.62
2023-02-14T04:30:44.992Z,30.65
2023-02-14T04:33:15.234Z,30.66
2023-02-14T04:35:45.294Z,30.69
2023-02-14T04:38:15.337Z,30.70
2023-02-14T04:40:45.502Z,30.71
2023-02-14T04:43:16.109Z,30.73
2023-02-14T04:45:46.124Z,30.76
2023-02-14T04:48:16.218Z,30.76
2023-02-14T04:50:46.390Z,30.78
2023-02-14T04:53:16.435Z,30.78
2023-02-14T04:55:46.878Z,30.78
2023-02-14T04:58:17.433Z,30.79
2023-02-14T05:00:47.657Z,30.80
2023-02-14T05:03:17.806Z,30.81
2023-02-14T05:05:48.169Z,30.84
2023-02-14T05:08:18.286Z,30.87
2023-02-14T05:10:48.832Z,30.87
2023-02-14T05:13:19.579Z,30.88
2023-02-14T05:15:49.579Z,30.91
2023-02-14T05:18:19.809Z,30.91
2023-02-14T05:20:53.825Z,30.91
2023-02-14T05:23:24.020Z,30.93
2023-02-14T05:25:54.432Z,30.95
2023-02-14T05:28:24.519Z,30.96
2023-02-14T05:30:55.099Z,31.00
2023-02-14T05:33:25.570Z,31.02
2023-02-14T05:35:55.949Z,31.03
2023-02-14T05:38:26.038Z,31.05
2023-02-14T05:40:56.178Z,31.07
2023-02-14T05:43:26.359Z,31.08
2023-02-14T05:45:56.609Z,31.10
2023-02-14T05:48:27.048Z,31.13
2023-02-14T05:50:57.284Z,31.15
2023-02-14T05:53:27.629Z,31.19
2023-02-14T05:55:58.030Z,31.22
2023-02-14T05:58:28.085Z,31.24
2023-02-14T06:01:01.744Z,31.24
2023-02-14T06:03:32.620Z,31.27
2023-02-14T06:06:02.829Z,31.29
2023-02-14T06:08:32.925Z,31.32
2023-02-14T06:11:03.089Z,31.34
2023-02-14T06:13:33.505Z,31.36
2023-02-14T06:16:04.687Z,31.38
2023-02-14T06:18:34.855Z,31.39
2023-02-14T06:21:05.591Z,31.42
2023-02-14T06:23:35.714Z,31.42
2023-02-14T06:26:06.294Z,31.44
2023-02-14T06:28:36.405Z,31.45
2023-02-14T06:31:06.592Z,31.47
2023-02-14T06:33:36.688Z,31.49
2023-02-14T06:36:06.925Z,31.52
2023-02-14T06:38:37.512Z,31.55
2023-02-14T06:41:08.980Z,31.56
2023-02-14T06:43:40.118Z,31.59
2023-02-14T06:46:10.212Z,31.59
2023-02-14T06:48:40.281Z,31.61
2023-02-14T06:51:10.363Z,31.24
2023-02-14T06:53:40.565Z,31.65
2023-02-14T06:56:10.706Z,31.67
2023-02-14T06:58:40.745Z,31.69
2023-02-14T07:01:11.188Z,31.72
2023-02-14T07:03:41.212Z,31.72
2023-02-14T07:06:11.404Z,31.75
2023-02-14T07:08:41.577Z,31.77
2023-02-14T07:11:11.670Z,31.79
2023-02-14T07:13:41.699Z,31.80
2023-02-14T07:16:12.322Z,31.81
2023-02-14T07:18:42.393Z,31.82
2023-02-14T07:21:12.594Z,31.85
2023-02-14T07:23:43.181Z,31.87
2023-02-14T07:26:13.243Z,31.90
2023-02-14T07:28:45.182Z,31.92
2023-02-14T07:31:15.484Z,31.93
2023-02-14T07:33:45.983Z,31.96
2023-02-14T07:36:16.069Z,31.98
2023-02-14T07:38:46.235Z,32.01
2023-02-14T07:41:16.645Z,32.05
2023-02-14T07:43:46.979Z,32.07
2023-02-14T07:46:18.870Z,32.11
2023-02-14T07:48:50.364Z,32.13
2023-02-14T07:51:20.708Z,32.18
2023-02-14T07:53:50.730Z,32.20
2023-02-14T07:56:20.897Z,32.22
2023-02-14T07:58:51.440Z,32.26
2023-02-14T08:01:22.436Z,32.30
2023-02-14T08:03:53.076Z,32.32
2023-02-14T08:06:23.343Z,32.34
2023-02-14T08:08:53.780Z,32.37
2023-02-14T08:11:43.428Z,32.40
2023-02-14T08:14:13.618Z,32.44
2023-02-14T08:16:43.971Z,32.46
2023-02-14T08:19:14.317Z,32.49
2023-02-14T08:21:44.645Z,32.53
2023-02-14T08:24:14.663Z,32.55
2023-02-14T08:26:44.829Z,32.56
2023-02-14T08:29:16.828Z,32.60
2023-02-14T08:31:48.805Z,32.60
2023-02-14T08:34:18.964Z,32.63
2023-02-14T08:36:49.345Z,32.64
2023-02-14T08:39:19.488Z,32.65
2023-02-14T08:41:49.748Z,32.67
2023-02-14T08:44:20.073Z,32.66
2023-02-14T08:46:50.252Z,32.67
2023-02-14T08:49:21.962Z,32.65
2023-02-14T08:51:52.403Z,32.68
2023-02-14T08:54:22.512Z,32.68
2023-02-14T08:56:52.688Z,32.70
2023-02-14T08:59:23.322Z,32.70
2023-02-14T09:01:53.457Z,32.70
2023-02-14T09:04:23.605Z,32.71
2023-02-14T09:06:53.675Z,32.72
2023-02-14T09:09:24.396Z,32.72
2023-02-14T09:11:54.574Z,32.72
2023-02-14T09:14:25.717Z,32.56
2023-02-14T09:16:55.959Z,32.35
2023-02-14T09:19:26.411Z,32.21
2023-02-14T09:21:56.473Z,32.10
2023-02-14T09:24:26.586Z,32.00
2023-02-14T09:26:58.797Z,31.96
2023-02-14T09:29:29.550Z,31.91
2023-02-14T09:32:01.126Z,31.87
2023-02-14T09:34:49.762Z,31.87
2023-02-14T09:37:19.866Z,31.85
2023-02-14T09:39:49.985Z,31.81
2023-02-14T09:42:24.773Z,31.80
2023-02-14T09:45:14.937Z,31.77
2023-02-14T09:47:54.212Z,31.73
2023-02-14T09:50:42.690Z,31.73
2023-02-14T09:53:29.667Z,31.73
2023-02-14T09:56:23.009Z,31.72
2023-02-14T09:58:53.163Z,31.71
2023-02-14T10:01:23.737Z,31.68
2023-02-14T10:04:04.440Z,31.69
2023-02-14T10:06:42.004Z,31.68
2023-02-14T10:09:30.431Z,31.67
2023-02-14T10:12:01.578Z,31.67
2023-02-14T10:14:35.356Z,31.66
2023-02-14T10:17:16.373Z,31.66
2023-02-14T10:20:09.600Z,31.63
2023-02-14T10:22:44.303Z,31.64
2023-02-14T10:25:24.427Z,31.62
2023-02-14T10:27:55.443Z,31.61
2023-02-14T10:30:26.068Z,31.63
2023-02-14T10:32:59.127Z,31.76
2023-02-14T10:35:48.049Z,31.86
2023-02-14T10:38:21.093Z,31.93
2023-02-14T10:41:01.444Z,31.97
2023-02-14T10:43:47.308Z,32.02
2023-02-14T10:46:36.914Z,32.04
2023-02-14T10:49:17.467Z,32.04
2023-02-14T10:52:05.927Z,32.06
2023-02-14T10:54:44.930Z,32.07
2023-02-14T10:57:21.313Z,31.64
2023-02-14T10:59:55.166Z,32.07
2023-02-14T11:02:41.642Z,32.07
2023-02-14T11:05:24.650Z,32.05
2023-02-14T11:07:55.150Z,32.04
2023-02-14T11:10:32.789Z,32.03
2023-02-14T11:13:05.177Z,32.02
2023-02-14T11:15:40.848Z,32.01
2023-02-14T11:18:24.845Z,31.99
2023-02-14T11:21:06.049Z,31.99
2023-02-14T11:23:38.062Z,31.97
2023-02-14T11:26:18.493Z,31.95
2023-02-14T11:29:15.122Z,31.95
2023-02-14T11:31:45.580Z,31.95
2023-02-14T11:34:41.356Z,31.93
2023-02-14T11:37:38.536Z,31.91
2023-02-14T11:40:08.943Z,31.90
2023-02-14T11:42:39.179Z,31.90
2023-02-14T11:45:12.648Z,31.89
2023-02-14T11:47:44.394Z,31.86
2023-02-14T11:50:26.105Z,31.86
2023-02-14T11:52:57.834Z,31.84
2023-02-14T11:55:30.408Z,31.80
2023-02-14T11:58:01.510Z,31.81
2023-02-14T12:00:32.873Z,31.79
2023-02-14T12:03:06.137Z,31.79
2023-02-14T12:05:47.361Z,31.77
2023-02-14T12:08:25.445Z,31.73
2023-02-14T12:11:19.528Z,31.73
2023-02-14T12:13:59.595Z,31.73
2023-02-14T12:16:36.962Z,31.68
2023-02-14T12:19:19.067Z,31.65
2023-02-14T12:21:53.207Z,31.66
2023-02-14T12:24:32.279Z,31.67
2023-02-14T12:27:21.538Z,31.45
2023-02-14T12:29:51.668Z,31.24
2023-02-14T12:32:26.669Z,31.14
2023-02-14T12:35:17.105Z,31.09
2023-02-14T12:38:25.314Z,31.09
2023-02-14T12:41:01.225Z,31.07
2023-02-14T12:43:42.419Z,31.05
2023-02-14T12:46:22.773Z,31.05
2023-02-14T12:49:11.390Z,31.04
2023-02-14T12:51:46.058Z,31.03
2023-02-14T12:54:35.534Z,31.03
2023-02-14T12:57:23.883Z,31.03
2023-02-14T13:00:16.186Z,31.03
2023-02-14T13:03:17.512Z,31.03
2023-02-14T13:05:52.408Z,30.87
2023-02-14T13:08:35.959Z,30.62
2023-02-14T13:11:13.019Z,30.45
2023-02-14T13:13:50.103Z,30.33
2023-02-14T13:16:25.781Z,30.23
2023-02-14T13:19:14.193Z,30.16
2023-02-14T13:21:45.894Z,30.03
2023-02-14T13:24:21.726Z,29.93
2023-02-14T13:26:56.795Z,29.87
2023-02-14T13:29:29.048Z,29.81
2023-02-14T13:32:00.519Z,29.71
2023-02-14T13:34:34.195Z,29.66
2023-02-14T13:37:07.680Z,29.62
2023-02-14T13:39:40.897Z,29.57
2023-02-14T13:42:14.408Z,29.52
2023-02-14T13:44:50.410Z,29.46
2023-02-14T13:47:24.523Z,29.38
2023-02-14T13:49:57.773Z,29.31
2023-02-14T13:52:46.347Z,29.25
2023-02-14T13:55:28.376Z,29.19
2023-02-14T13:58:18.881Z,29.16
2023-02-14T14:00:50.135Z,29.09
2023-02-14T14:03:29.931Z,29.05
2023-02-14T14:06:05.051Z,28.99
2023-02-14T14:08:38.812Z,28.94
2023-02-14T14:11:34.957Z,28.92
2023-02-14T14:14:25.570Z,28.68
2023-02-14T14:17:00.125Z,28.78
2023-02-14T14:19:30.214Z,28.73
2023-02-14T14:22:05.845Z,28.70
2023-02-14T14:24:37.113Z,28.68
2023-02-14T14:27:21.948Z,28.69
2023-02-14T14:29:53.853Z,28.69
2023-02-14T14:32:27.043Z,28.68
2023-02-14T14:35:06.462Z,28.67
2023-02-14T14:37:38.437Z,28.68
2023-02-14T14:40:11.137Z,28.69
2023-02-14T14:42:41.848Z,28.66
2023-02-14T14:45:23.537Z,28.69
2023-02-14T14:47:55.073Z,28.71
2023-02-14T14:50:27.048Z,28.76
2023-02-14T14:53:00.325Z,28.78
2023-02-14T14:55:33.420Z,28.76
2023-02-14T14:58:07.374Z,28.74
2023-02-14T15:00:43.910Z,28.67
2023-02-14T15:03:14.037Z,28.65
2023-02-14T15:05:45.322Z,28.62
2023-02-14T15:08:29.317Z,28.58
2023-02-14T15:11:05.285Z,28.49
2023-02-14T15:13:58.885Z,28.42
2023-02-14T15:16:35.790Z,28.35
2023-02-14T15:19:10.644Z,28.28
2023-02-14T15:21:44.718Z,28.22
2023-02-14T15:24:16.396Z,28.15
2023-02-14T15:26:47.613Z,28.13
2023-02-14T15:29:28.184Z,28.10
2023-02-14T15:32:02.493Z,28.06
2023-02-14T15:34:37.678Z,27.99
2023-02-14T15:37:08.480Z,27.97
2023-02-14T15:39:39.780Z,27.70
2023-02-14T15:42:34.018Z,27.94
2023-02-14T15:45:16.194Z,27.92
2023-02-14T15:47:47.717Z,27.87
2023-02-14T15:50:26.774Z,27.87
2023-02-14T15:53:00.166Z,27.82
2023-02-14T15:55:30.523Z,27.80
2023-02-14T15:58:02.147Z,27.75
2023-02-14T16:00:33.153Z,27.70
2023-02-14T16:03:08.092Z,27.70
2023-02-14T16:05:38.106Z,27.65
2023-02-14T16:08:26.553Z,27.62
2023-02-14T16:11:15.958Z,27.59
2023-02-14T16:13:48.640Z,27.58
2023-02-14T16:16:18.646Z,27.56
2023-02-14T16:18:51.678Z,27.53
2023-02-14T16:21:26.584Z,27.52
2023-02-14T16:24:08.632Z,27.48
2023-02-14T16:26:42.569Z,27.45
2023-02-14T16:29:17.583Z,27.46
2023-02-14T16:32:15.672Z,27.46
2023-02-14T16:34:42.203Z,27.41
2023-02-14T16:37:22.895Z,27.38
2023-02-14T16:39:54.660Z,27.33
2023-02-14T16:42:25.113Z,27.33
2023-02-14T16:44:55.893Z,27.31
2023-02-14T16:47:29.070Z,27.27
2023-02-14T16:49:59.045Z,27.27
2023-02-14T16:52:30.494Z,27.30
2023-02-14T16:55:00.901Z,27.30
2023-02-14T16:57:39.712Z,27.27
2023-02-14T17:00:11.124Z,27.29
2023-02-14T17:02:44.073Z,27.26
2023-02-14T17:05:14.519Z,27.07
2023-02-14T17:07:45.173Z,27.26
2023-02-14T17:10:19.766Z,27.25
2023-02-14T17:12:51.463Z,27.22
2023-02-14T17:15:23.025Z,27.27
2023-02-14T17:17:56.912Z,27.24
2023-02-14T17:20:26.937Z,27.23
2023-02-14T17:22:57.064Z,27.20
2023-02-14T17:25:27.428Z,27.18
2023-02-14T17:27:57.848Z,27.20
2023-02-14T17:30:27.962Z,27.17
2023-02-14T17:32:58.224Z,27.15
2023-02-14T17:35:28.888Z,27.09
2023-02-14T17:37:58.900Z,27.11
2023-02-14T17:40:29.756Z,27.07
2023-02-14T17:42:59.970Z,27.08
2023-02-14T17:45:29.968Z,27.08
2023-02-14T17:48:00.049Z,27.08
2023-02-14T17:50:30.215Z,27.06
2023-02-14T17:53:00.179Z,27.06
2023-02-14T17:55:30.242Z,27.04
2023-02-14T17:58:00.225Z,27.04
2023-02-14T18:00:30.446Z,27.05
2023-02-14T18:03:01.163Z,27.06
2023-02-14T18:05:31.160Z,27.02
2023-02-14T18:08:01.229Z,27.02
2023-02-14T18:10:31.411Z,26.96
2023-02-14T18:13:02.001Z,26.96
2023-02-14T18:15:32.414Z,26.97
2023-02-14T18:18:02.987Z,26.97
2023-02-14T18:20:32.975Z,26.96
2023-02-14T18:23:08.381Z,26.95
2023-02-14T18:25:38.640Z,26.93
2023-02-14T18:28:08.633Z,26.91
2023-02-14T18:30:39.085Z,26.88
2023-02-14T18:33:09.100Z,26.88
2023-02-14T18:35:39.182Z,26.89
2023-02-14T18:38:09.915Z,26.87
2023-02-14T18:40:40.521Z,26.84
2023-02-14T18:43:10.497Z,26.82
2023-02-14T18:45:41.166Z,26.80
2023-02-14T18:48:11.293Z,26.79
2023-02-14T18:50:41.290Z,26.80
2023-02-14T18:53:11.346Z,26.77
2023-02-14T18:55:41.745Z,26.76
2023-02-14T18:58:11.907Z,26.69
2023-02-14T19:00:41.936Z,26.72
2023-02-14T19:03:11.998Z,26.76
2023-02-14T19:05:41.949Z,26.74
2023-02-14T19:08:12.012Z,26.70
2023-02-14T19:10:42.167Z,26.69
2023-02-14T19:13:12.245Z,26.65
2023-02-14T19:15:42.256Z,26.69
2023-02-14T19:18:12.244Z,26.69
2023-02-14T19:20:42.915Z,26.66
2023-02-14T19:23:12.891Z,26.66
2023-02-14T19:25:42.984Z,26.63
2023-02-14T19:28:12.961Z,26.63
2023-02-14T19:30:43.224Z,26.60
2023-02-14T19:33:13.538Z,26.58
2023-02-14T19:35:43.525Z,26.57
2023-02-14T19:38:13.550Z,26.57
2023-02-14T19:40:46.682Z,26.56
2023-02-14T19:43:16.805Z,26.53
2023-02-14T19:45:46.818Z,26.11
2023-02-14T19:48:16.833Z,26.53
2023-02-14T19:50:46.833Z,26.49
2023-02-14T19:53:16.768Z,26.51
2023-02-14T19:55:47.467Z,26.51
2023-02-14T19:58:17.971Z,26.49
2023-02-14T20:00:55.190Z,26.52
2023-02-14T20:03:27.010Z,26.48
2023-02-14T20:05:57.083Z,26.46
2023-02-14T20:08:27.067Z,26.44
2023-02-14T20:10:57.294Z,26.45
2023-02-14T20:13:27.337Z,26.45
2023-02-14T20:15:57.321Z,26.43
2023-02-14T20:18:27.260Z,26.42
2023-02-14T20:21:05.989Z,26.41
2023-02-14T20:23:36.021Z,26.40
2023-02-14T20:26:05.979Z,26.38
2023-02-14T20:28:36.014Z,26.38
2023-02-14T20:31:13.220Z,26.37
2023-02-14T20:33:44.044Z,26.40
2023-02-14T20:36:14.515Z,26.38
2023-02-14T20:38:44.812Z,26.37
2023-02-14T20:41:15.676Z,26.35
2023-02-14T20:43:45.694Z,26.33
2023-02-14T20:46:15.706Z,26.30
2023-02-14T20:48:45.800Z,26.34
2023-02-14T20:51:17.581Z,26.42
2023-02-14T20:53:48.340Z,26.47
2023-02-14T20:56:18.486Z,26.55
2023-02-14T20:58:49.029Z,26.62
2023-02-14T21:01:23.852Z,26.70
2023-02-14T21:03:54.941Z,26.67
2023-02-14T21:06:26.195Z,26.65
2023-02-14T21:08:56.336Z,26.61
2023-02-14T21:11:28.191Z,26.53
2023-02-14T21:13:59.978Z,26.52
2023-02-14T21:16:31.572Z,26.48
2023-02-14T21:19:01.612Z,26.46
2023-02-14T21:21:37.815Z,26.43
2023-02-14T21:24:09.563Z,26.41
2023-02-14T21:26:40.348Z,26.40
2023-02-14T21:29:11.381Z,26.39
2023-02-14T21:31:41.647Z,26.37
2023-02-14T21:34:12.104Z,26.32
2023-02-14T21:36:42.064Z,26.34
2023-02-14T21:39:12.002Z,26.35
2023-02-14T21:41:42.062Z,26.34
2023-02-14T21:44:31.915Z,26.34
2023-02-14T21:47:01.867Z,26.34
2023-02-14T21:49:50.335Z,26.30
2023-02-14T21:52:20.638Z,26.30
2023-02-14T21:54:50.685Z,26.38
2023-02-14T21:57:20.716Z,26.42
2023-02-14T21:59:50.784Z,26.50
2023-02-14T22:02:21.470Z,26.57
2023-02-14T22:04:52.042Z,26.63
2023-02-14T22:07:22.034Z,26.65
2023-02-14T22:09:52.001Z,26.63
2023-02-14T22:12:21.937Z,26.57
2023-02-14T22:14:51.928Z,26.57
2023-02-14T22:17:21.885Z,26.56
2023-02-14T22:19:51.913Z,26.51
2023-02-14T22:22:22.101Z,26.44
2023-02-14T22:24:52.357Z,26.45
2023-02-14T22:27:22.351Z,26.42
2023-02-14T22:29:52.615Z,26.41
2023-02-14T22:32:24.361Z,26.39
2023-02-14T22:34:56.265Z,26.37
2023-02-14T22:37:26.257Z,26.37
2023-02-14T22:39:56.337Z,26.38
2023-02-14T22:42:26.429Z,26.39
2023-02-14T22:44:56.356Z,26.45
2023-02-14T22:47:26.381Z,26.54
2023-02-14T22:49:56.320Z,26.62
2023-02-14T22:52:26.544Z,26.65
2023-02-14T22:54:56.495Z,26.69
2023-02-14T22:57:27.200Z,26.65
2023-02-14T22:59:57.389Z,26.59
2023-02-14T23:02:27.994Z,26.60
2023-02-14T23:04:57.993Z,26.70
2023-02-14T23:07:28.427Z,26.82
2023-02-14T23:09:59.072Z,26.94
2023-02-14T23:12:47.367Z,27.04
2023-02-14T23:15:35.636Z,27.13
2023-02-14T23:18:23.870Z,27.21
2023-02-14T23:21:14.909Z,27.33
2023-02-14T23:23:44.849Z,27.39
2023-02-14T23:26:14.872Z,27.45
2023-02-14T23:28:44.839Z,27.50
2023-02-14T23:31:15.090Z,27.58
2023-02-14T23:33:45.398Z,27.64
2023-02-14T23:36:15.596Z,27.71
2023-02-14T23:38:45.721Z,27.76
2023-02-14T23:41:34.294Z,27.81
2023-02-14T23:44:04.366Z,27.89
2023-02-14T23:46:34.369Z,27.95
2023-02-14T23:49:04.567Z,28.01
2023-02-14T23:51:37.228Z,28.09
2023-02-14T23:54:07.420Z,28.16
2023-02-14T23:56:38.197Z,28.20
2023-02-14T23:59:08.973Z,28.24
